• Join FlightAware (Why Join?)
  • Login
  • US Flag 
05:04AM EDT


 

Airport Tracker/Info


-or-


 

Live Flight TrackerFlight Track Log ✈ TRS384 ✈ 01-Jul-2013 ✈ KMCO - KDCA

Flight Track Log - Related Links

Times and Time Zones

All times are in EDT time to prevent confusion due to time zone crossing. See the TRS384 flight status page for this flight to view local times or setup timezone preferences in your user account.

Time Position Orientation Groundspeed Altitude Reporting Facility
EDT Latitude Longitude Course Direction KTS MPH feet Rate Location/Type
09:00PM 28.4000 -81.3000 139° Southeast 162 186 1,100  Level Orlando TRACON
09:01PM 28.3833 -81.2833 139° Southeast 217 250 1,600 1,740 Climbing Orlando TRACON
09:02PM 28.3167 -81.2333 147° Southeast 254 292 4,000 2,220 Climbing Orlando TRACON
09:03PM 28.3333 -81.1500 77° East 291 335 6,100 2,100 Climbing Orlando TRACON
09:04PM 28.4167 -81.1500 360° North 318 366 8,300 1,620 Climbing Orlando TRACON
09:06PM 28.5961 -81.2161 342° North 337 388 11,100 1,500 Climbing Jacksonville Center
09:07PM 28.7008 -81.2522 343° North 358 412 12,800 1,560 Climbing Jacksonville Center
09:08PM 28.8078 -81.2861 344° North 383 441 14,300 1,500 Climbing Jacksonville Center
09:09PM 28.9189 -81.3247 343° North 402 463 15,900 1,680 Climbing Jacksonville Center
09:10PM 29.0300 -81.3656 342° North 418 481 17,700 1,620 Climbing Jacksonville Center
09:11PM 29.1472 -81.3922 349° North 423 487 19,200 1,440 Climbing Jacksonville Center
09:12PM 29.2706 -81.4072 354° North 435 501 20,600 1,320 Climbing Jacksonville Center
09:13PM 29.3936 -81.4194 355° North 447 514 21,900 1,200 Climbing Jacksonville Center
09:14PM 29.5067 -81.4297 355° North 447 514 23,100 1,140 Climbing Jacksonville Center
09:15PM 29.6361 -81.4447 354° North 453 521 24,200 1,080 Climbing Jacksonville Center
09:16PM 29.7719 -81.4450 360° North 466 536 25,300 900 Climbing Jacksonville Center
09:17PM 29.9056 -81.4431 North 471 542 26,100 900 Climbing Jacksonville Center
09:18PM 30.0411 -81.4433 360° North 478 550 27,200 1,020 Climbing Jacksonville Center
09:19PM 30.1789 -81.4414 North 478 550 28,200 1,080 Climbing Jacksonville Center
09:20PM 30.3167 -81.4417 360° North 478 550 29,400 1,200 Climbing Jacksonville Center
09:21PM 30.4525 -81.4394 North 478 550 30,600 1,140 Climbing Jacksonville Center
09:22PM 30.5903 -81.4397 360° North 478 550 31,700 1,080 Climbing Jacksonville Center
09:23PM 30.7217 -81.4233 North 478 550 32,800 600 Climbing Jacksonville Center
09:24PM 30.8483 -81.3633 22° Northeast 471 542 33,000 60 Climbing Jacksonville Center
09:25PM 30.9747 -81.3031 22° Northeast 477 549 33,000  Level Jacksonville Center
09:26PM 31.1036 -81.2403 23° Northeast 487 560 33,000  Level Jacksonville Center
09:27PM 31.2322 -81.1772 23° Northeast 493 567 33,000  Level Jacksonville Center
09:28PM 31.3731 -81.1042 24° Northeast 493 567 33,000  Level Jacksonville Center
09:29PM 31.4994 -81.0433 22° Northeast 492 566 33,000  Level Jacksonville Center
09:30PM 31.6136 -80.9847 24° Northeast 492 566 33,000  Level Jacksonville Center
09:31PM 31.7567 -80.9183 22° Northeast 498 573 33,000  Level Jacksonville Center
09:32PM 31.8850 -80.8544 23° Northeast 492 566 33,000  Level Jacksonville Center
09:33PM 32.0133 -80.7928 22° Northeast 492 566 33,000  Level Jacksonville Center
09:34PM 32.1417 -80.7286 23° Northeast 492 566 33,000  Level Jacksonville Center
09:35PM 32.2578 -80.6692 23° Northeast 497 572 33,000  Level Jacksonville Center
09:36PM 32.3858 -80.6047 23° Northeast 491 565 33,000  Level Jacksonville Center
09:37PM 32.5164 -80.5397 23° Northeast 496 571 33,000  Level Jacksonville Center
09:38PM 32.6444 -80.4747 23° Northeast 496 571 33,000  Level Jacksonville Center
09:39PM 32.7747 -80.4094 23° Northeast 496 571 33,000  Level Jacksonville Center
09:40PM 32.9028 -80.3442 23° Northeast 496 571 33,000  Level Jacksonville Center
09:41PM 33.0517 -80.2681 23° Northeast 507 583 33,000  Level Jacksonville Center
09:42PM 33.1794 -80.2022 23° Northeast 513 590 33,000  Level Jacksonville Center
09:43PM 33.3117 -80.1361 23° Northeast 513 590 33,000  Level Jacksonville Center
09:44PM 33.4397 -80.0725 23° Northeast 507 583 33,000  Level Jacksonville Center
09:45PM 33.5656 -80.0061 24° Northeast 502 578 33,000  Level Jacksonville Center
09:46PM 33.6892 -79.9422 23° Northeast 491 565 33,000  Level Jacksonville Center
09:47PM 33.8169 -79.8753 24° Northeast 486 559 33,000  Level Jacksonville Center
09:48PM 33.9406 -79.8086 24° Northeast 486 559 33,000  Level Jacksonville Center
09:49PM 34.0683 -79.7439 23° Northeast 491 565 33,000 300 Level Jacksonville Center
09:51PM 34.3383 -79.6033 23° Northeast 479 551 34,000 540 Climbing Washington Center
09:52PM 34.4633 -79.5392 23° Northeast 484 557 34,800 480 Climbing Washington Center
09:53PM 34.5931 -79.4722 23° Northeast 484 557 35,000 60 Climbing Washington Center
09:54PM 34.7142 -79.3969 27° Northeast 484 557 35,000  Level Washington Center
09:55PM 34.8317 -79.3114 31° Northeast 489 563 35,000  Level Washington Center
09:56PM 34.9469 -79.2281 31° Northeast 484 557 35,000  Level Washington Center
09:57PM 35.0686 -79.1422 30° Northeast 484 557 35,000  Level Washington Center
09:58PM 35.1856 -79.0583 30° Northeast 484 557 35,000  Level Washington Center
09:59PM 35.3072 -78.9719 30° Northeast 489 563 35,000  Level Washington Center
10:00PM 35.4392 -78.8783 30° Northeast 494 568 35,000  Level Washington Center
10:01PM 35.5647 -78.7889 30° Northeast 499 574 35,000  Level Washington Center
10:02PM 35.6858 -78.6992 31° Northeast 499 574 35,000  Level Washington Center
10:03PM 35.8072 -78.6092 31° Northeast 504 580 35,000  Level Washington Center
10:04PM 35.9242 -78.5211 31° Northeast 504 580 35,000 -180 Level Washington Center
10:05PM 36.0411 -78.4331 31° Northeast 504 580 34,700 -1,620 Descending Washington Center
10:06PM 36.1578 -78.3472 31° Northeast 504 580 31,800 -2,940 Descending Washington Center
10:07PM 36.2831 -78.2536 31° Northeast 504 580 28,800 -2,460 Descending Washington Center
10:08PM 36.3997 -78.1647 32° Northeast 499 574 27,000 -960 Descending Washington Center
10:09PM 36.5053 -78.0983 27° Northeast 485 558 27,000  Level Washington Center
10:10PM 36.6339 -78.0353 21° North 479 551 27,000  Level Washington Center
10:11PM 36.7625 -77.9667 23° Northeast 484 557 27,000  Level Washington Center
10:12PM 36.8911 -77.8981 23° Northeast 490 564 27,000  Level Washington Center
10:13PM 37.0219 -77.8317 22° Northeast 496 571 27,000  Level Washington Center
10:14PM 37.1525 -77.7625 23° Northeast 502 578 27,000 -420 Level Washington Center
10:15PM 37.2808 -77.6956 23° Northeast 497 572 26,200 -900 Descending Washington Center
10:16PM 37.4092 -77.6286 23° Northeast 497 572 25,200 -1,140 Descending Washington Center
10:17PM 37.5314 -77.5664 22° Northeast 492 566 24,000 -1,860 Descending Washington Center
10:18PM 37.6533 -77.4986 24° Northeast 480 552 21,600 -2,340 Descending Washington Center
10:19PM 37.7628 -77.4383 24° Northeast 455 524 19,400 -2,100 Descending Washington Center
10:20PM 37.8742 -77.3806 22° Northeast 439 505 17,400 -2,160 Descending Washington Center
10:21PM 37.9772 -77.3225 24° Northeast 413 475 15,200 -2,340 Descending Washington Center
10:22PM 38.0803 -77.2722 21° North 399 459 12,900 -2,040 Descending Washington Center
10:23PM 38.1808 -77.2214 22° Northeast 394 453 11,200 -1,320 Descending Washington Center
10:24PM 38.2756 -77.1653 25° Northeast 382 440 10,300 -660 Descending Washington Center
10:25PM 38.3800 -77.1383 11° North 375 432 9,900 -240 Descending Washington Center
10:26PM 38.4889 -77.1169 North 375 432 9,900  Level Washington Center
10:27PM 38.5933 -77.0950 North 380 437 10,000 60 Climbing Washington Center
10:27PM 38.6667 -77.0833 North 351 404 10,000 -840 Level Potomac TRACON
10:28PM 38.7500 -77.0667 North 319 367 8,700 -1,560 Descending Potomac TRACON
10:29PM 38.8333 -77.1167 335° Northwest 322 371 6,900 -1,800 Descending Potomac TRACON
10:30PM 38.8833 -77.1833 314° West 286 329 5,300 -1,740 Descending Potomac TRACON
10:31PM 38.9333 -77.2500 314° West 269 310 3,600 -1,080 Descending Potomac TRACON
10:32PM 38.9833 -77.2000 38° Northeast 253 291 3,100 -360 Descending Potomac TRACON
10:33PM 38.9500 -77.1333 123° Southeast 212 244 2,900 -660 Descending Potomac TRACON
10:34PM 38.9167 -77.1000 142° Southeast 160 184 1,900 -1,020 Descending Potomac TRACON
10:35PM 38.9000 -77.0667 123° Southeast 135 155 900 -1,020 Descending Potomac TRACON
10:37PM 38.8500 -77.0333 111° Southeast  Level FlightAware Approximate
10:44PM 38.8519 -77.0377 111° Southeast  Level Estimated